This is the latest recevied weather packets stored in our database for station/object AH6GR. If no packets are shown the sender has not sent any weather packets the latest 10 day(s).
| Time | Temp. | Humidity | Pressure | Rain* | Wind** | Luminosity | Snow |
|---|---|---|---|---|---|---|---|
| 1777640424 | 21.11° C | 84% | 1017.4 hPa | 0 mm | - | - | - |
| 1777639824 | 21.11° C | 84% | 1017.5 hPa | 0 mm | - | - | - |
| 1777639561 | 20.56° C | 85% | 1016.5 hPa | 0 mm | - | - | - |
| 1777639224 | 21.11° C | 85% | 1017.4 hPa | 0 mm | - | - | - |
| 1777638626 | 20.56° C | 84% | 1016.6 hPa | 0 mm | - | - | - |
| 1777638624 | 21.11° C | 84% | 1017.5 hPa | 0 mm | - | - | - |
| 1777638024 | 21.11° C | 84% | 1017.6 hPa | 0 mm | - | - | - |
| 1777637703 | 20.56° C | 84% | 1016.9 hPa | 0 mm | - | - | - |
| 1777637424 | 20.56° C | 85% | 1017.7 hPa | 0 mm | - | - | - |
| 1777636855 | 20.56° C | 87% | 1017 hPa | 0 mm | - | - | - |
| 1777636824 | 20.56° C | 87% | 1017.8 hPa | 0 mm | - | - | - |
| 1777636224 | 20° C | 89% | 1017.9 hPa | 0 mm | - | - | - |
| 1777635947 | 20° C | 89% | 1017.2 hPa | 0 mm | - | - | - |
| 1777635624 | 20° C | 90% | 1017.9 hPa | 0 mm | - | - | - |
| 1777635070 | 19.44° C | 90% | 1017.2 hPa | 0 mm | - | - | - |
| 1777635024 | 20° C | 90% | 1018 hPa | 0 mm | - | - | - |
| 1777634424 | 20.56° C | 88% | 1018.2 hPa | 0 mm | - | - | - |
| 1777634142 | 20° C | 87% | 1017.5 hPa | 0 mm | - | - | - |
| 1777633824 | 21.11° C | 85% | 1018.3 hPa | 0 mm | - | - | - |
| 1777633224 | 21.11° C | 84% | 1018.1 hPa | 0 mm | - | - | - |
| 1777633210 | 20.56° C | 84% | 1017.3 hPa | 0 mm | - | - | - |
| 1777632624 | 21.11° C | 83% | 1018.3 hPa | 0 mm | - | - | - |
| 1777632353 | 20.56° C | 83% | 1017.3 hPa | 0 mm | - | - | - |
| 1777632024 | 21.11° C | 83% | 1018.3 hPa | 0 mm | - | - | - |
| 1777631424 | 21.11° C | 84% | 1018.6 hPa | 0 mm | - | - | - |
* Rain latest hour (hover to see other rain measurements)
** Current wind speed in m/s (hover to see current wind gust speed)